Time;durP1;ratioP1;P1;durP2;ratioP2;P2;SDS_P1;SDS_P2;PMS_P1;PMS_P2;Temp;Humidity;BMP_temperature;BMP_pressure;BME280_temperature;BME280_humidity;BME280_pressure;Samples;Min_cycle;Max_cycle;Signal;HPM_P1;HPM_P2
2021/12/29 00:02:06;;;;;;;72.05;25.83;;;;;;;;;;5061639;28;20465;-66
2021/12/29 00:04:33;;;;;;;79.33;27.67;;;;;;;;;;5059319;28;20492;-66
2021/12/29 00:07:00;;;;;;;77.30;26.00;;;;;;;;;;5060285;28;20087;-66
2021/12/29 00:09:32;;;;;;;79.80;25.17;;;;;;;;;;5051686;28;20080;-66
2021/12/29 00:11:59;;;;;;;80.93;26.90;;;;;;;;;;5057935;28;20471;-66
2021/12/29 00:14:25;;;;;;;73.13;25.63;;;;;;;;;;5049908;28;20132;-66
2021/12/29 00:16:58;;;;;;;75.75;27.05;;;;;;;;;;5059055;28;20136;-66
2021/12/29 00:19:26;;;;;;;73.47;26.27;;;;;;;;;;5061142;28;20525;-66
2021/12/29 00:21:53;;;;;;;74.55;26.45;;;;;;;;;;5047226;28;20069;-66
2021/12/29 00:24:26;;;;;;;65.13;25.20;;;;;;;;;;5063116;28;20080;-66
2021/12/29 00:26:53;;;;;;;75.97;26.00;;;;;;;;;;5060956;28;20463;-66
2021/12/29 00:29:19;;;;;;;75.43;25.40;;;;;;;;;;5059881;28;20072;-66
2021/12/29 00:31:47;;;;;;;77.75;26.70;;;;;;;;;;5060374;28;20045;-66
2021/12/29 00:34:14;;;;;;;84.75;26.83;;;;;;;;;;5064362;28;20510;-66
2021/12/29 00:36:40;;;;;;;80.50;29.45;;;;;;;;;;5060362;28;20072;-66
2021/12/29 00:39:07;;;;;;;88.77;30.23;;;;;;;;;;5064237;28;20076;-66
2021/12/29 00:41:33;;;;;;;81.55;28.42;;;;;;;;;;5064537;28;20374;-66
2021/12/29 00:44:00;;;;;;;75.07;28.50;;;;;;;;;;5059479;28;20048;-66
2021/12/29 00:46:31;;;;;;;83.70;28.88;;;;;;;;;;5065087;28;20491;-66
2021/12/29 00:48:58;;;;;;;64.30;21.07;;;;;;;;;;5058847;28;20508;-66
2021/12/29 00:51:24;;;;;;;77.22;29.10;;;;;;;;;;5058477;28;20742;-66
2021/12/29 00:53:58;;;;;;;78.32;29.83;;;;;;;;;;5055925;28;20144;-66
2021/12/29 00:56:24;;;;;;;78.32;28.52;;;;;;;;;;5072058;28;20468;-66
2021/12/29 00:58:50;;;;;;;67.13;20.63;;;;;;;;;;5079477;28;20087;-66
2021/12/29 01:01:17;;;;;;;73.30;27.17;;;;;;;;;;5083463;28;20523;-66
2021/12/29 01:03:44;;;;;;;77.80;27.20;;;;;;;;;;5081632;28;20040;-66
2021/12/29 01:06:10;;;;;;;87.22;28.80;;;;;;;;;;5083914;28;20131;-66
2021/12/29 01:08:37;;;;;;;79.00;27.33;;;;;;;;;;5080503;28;20559;-66
2021/12/29 01:11:04;;;;;;;63.20;23.08;;;;;;;;;;5083033;28;20131;-66
2021/12/29 01:13:33;;;;;;;74.13;27.55;;;;;;;;;;5082593;28;20472;-64
2021/12/29 01:18:33;;;;;;;91.00;27.63;;;;;;;;;;5080248;28;21401;-64
2021/12/29 01:21:00;;;;;;;80.57;28.67;;;;;;;;;;5073666;28;20473;-64
2021/12/29 01:23:27;;;;;;;80.65;27.80;;;;;;;;;;5078306;28;20446;-64
2021/12/29 01:25:53;;;;;;;84.68;28.98;;;;;;;;;;5077585;28;20054;-64
2021/12/29 01:28:20;;;;;;;73.80;26.52;;;;;;;;;;5081776;28;20040;-65
2021/12/29 01:30:52;;;;;;;86.50;28.85;;;;;;;;;;5079846;28;20478;-64
2021/12/29 01:33:19;;;;;;;82.10;28.37;;;;;;;;;;5078026;28;20184;-64
2021/12/29 01:35:45;;;;;;;81.00;29.30;;;;;;;;;;5084126;28;20460;-64
2021/12/29 01:38:19;;;;;;;78.57;27.88;;;;;;;;;;5078549;28;20048;-66
2021/12/29 01:40:48;;;;;;;80.25;29.42;;;;;;;;;;5077072;28;20128;-65
2021/12/29 01:43:15;;;;;;;82.47;28.88;;;;;;;;;;5082417;28;20139;-66
2021/12/29 01:45:43;;;;;;;86.07;29.90;;;;;;;;;;5085134;28;20135;-65
2021/12/29 01:48:09;;;;;;;80.97;29.17;;;;;;;;;;5080338;28;20048;-66
2021/12/29 01:50:37;;;;;;;91.13;28.45;;;;;;;;;;5080435;28;20131;-66
2021/12/29 01:53:10;;;;;;;91.75;28.02;;;;;;;;;;5079368;28;20547;-65
2021/12/29 01:55:37;;;;;;;81.75;28.25;;;;;;;;;;5078411;28;20056;-65
2021/12/29 01:58:04;;;;;;;84.90;28.52;;;;;;;;;;5086210;28;20071;-65
2021/12/29 02:00:34;;;;;;;84.03;30.20;;;;;;;;;;5084308;28;20135;-65
2021/12/29 02:03:00;;;;;;;80.43;29.30;;;;;;;;;;5061164;28;20048;-66
2021/12/29 02:05:27;;;;;;;96.63;32.20;;;;;;;;;;5081232;28;20078;-65
2021/12/29 02:07:55;;;;;;;;;;;;;;;;;;5084667;28;20370;-65
2021/12/29 02:10:22;;;;;;;86.25;30.35;;;;;;;;;;5079183;28;20387;-65
2021/12/29 02:12:49;;;;;;;101.68;30.70;;;;;;;;;;5080121;28;20911;-65
2021/12/29 02:15:15;;;;;;;98.60;29.95;;;;;;;;;;5061875;28;20527;-65
2021/12/29 02:17:42;;;;;;;98.95;32.55;;;;;;;;;;5079478;28;20071;-65
2021/12/29 02:20:11;;;;;;;100.78;30.73;;;;;;;;;;5076579;28;20076;-65
2021/12/29 02:22:48;;;;;;;95.18;31.25;;;;;;;;;;5077119;28;20079;-65
2021/12/29 02:25:22;;;;;;;81.93;28.90;;;;;;;;;;5079353;28;20135;-65
2021/12/29 02:27:51;;;;;;;85.75;30.17;;;;;;;;;;5079183;28;20503;-66
2021/12/29 02:30:19;;;;;;;100.22;31.00;;;;;;;;;;5079224;28;20045;-66
2021/12/29 02:32:46;;;;;;;90.13;29.85;;;;;;;;;;5079728;28;20127;-65
2021/12/29 02:35:21;;;;;;;96.32;29.80;;;;;;;;;;5079914;28;20053;-65
2021/12/29 02:37:50;;;;;;;111.38;31.02;;;;;;;;;;5077007;28;20050;-65
2021/12/29 02:40:16;;;;;;;103.00;32.58;;;;;;;;;;5077654;28;20476;-66
2021/12/29 02:42:45;;;;;;;98.38;30.48;;;;;;;;;;5079174;28;20105;-65
2021/12/29 02:45:18;;;;;;;96.78;30.73;;;;;;;;;;5079182;28;20144;-65
2021/12/29 02:47:44;;;;;;;93.18;30.85;;;;;;;;;;5084339;28;20051;-65
2021/12/29 02:50:14;;;;;;;75.25;23.85;;;;;;;;;;5081639;28;20139;-65
2021/12/29 02:52:41;;;;;;;101.30;31.25;;;;;;;;;;5077490;28;20048;-65
2021/12/29 02:55:07;;;;;;;99.22;32.15;;;;;;;;;;5079376;28;20474;-65
2021/12/29 02:57:34;;;;;;;95.55;29.90;;;;;;;;;;5079021;28;20049;-65
2021/12/29 03:00:01;;;;;;;96.60;30.13;;;;;;;;;;5079575;28;20131;-65
2021/12/29 03:02:27;;;;;;;97.07;31.43;;;;;;;;;;5080426;28;20134;-65
2021/12/29 03:04:56;;;;;;;113.73;33.47;;;;;;;;;;5077635;28;20059;-65
2021/12/29 03:07:26;;;;;;;130.43;33.45;;;;;;;;;;5075703;28;20076;-65
2021/12/29 03:09:53;;;;;;;122.95;32.85;;;;;;;;;;5079490;28;20138;-65
2021/12/29 03:12:25;;;;;;;105.35;31.13;;;;;;;;;;5084804;28;20131;-65
2021/12/29 03:14:53;;;;;;;105.88;31.90;;;;;;;;;;5079148;28;20178;-65
2021/12/29 03:17:20;;;;;;;101.88;31.77;;;;;;;;;;5082624;28;20055;-65
2021/12/29 03:19:47;;;;;;;95.70;31.08;;;;;;;;;;5081158;28;20135;-65
2021/12/29 03:22:14;;;;;;;95.05;31.20;;;;;;;;;;5077676;28;20087;-65
2021/12/29 03:24:40;;;;;;;96.68;31.42;;;;;;;;;;5077635;28;20132;-65
2021/12/29 03:27:07;;;;;;;94.35;30.42;;;;;;;;;;5084903;28;20530;-65
2021/12/29 03:29:34;;;;;;;86.88;28.42;;;;;;;;;;5085605;28;20064;-65
2021/12/29 03:32:06;;;;;;;91.90;30.67;;;;;;;;;;5084781;28;20575;-65
2021/12/29 03:34:33;;;;;;;86.53;29.92;;;;;;;;;;5078895;28;20181;-65
2021/12/29 03:36:59;;;;;;;86.25;28.77;;;;;;;;;;5082945;28;20463;-65
2021/12/29 03:39:27;;;;;;;87.95;30.17;;;;;;;;;;5084154;28;20132;-65
2021/12/29 03:41:54;;;;;;;96.25;28.77;;;;;;;;;;5086225;28;20058;-65
2021/12/29 03:44:21;;;;;;;97.25;30.88;;;;;;;;;;5081877;28;20048;-65
2021/12/29 03:46:47;;;;;;;99.70;31.02;;;;;;;;;;5077583;28;20550;-65
2021/12/29 03:49:16;;;;;;;100.15;31.98;;;;;;;;;;5080598;28;20468;-65
2021/12/29 03:51:43;;;;;;;99.35;31.23;;;;;;;;;;5081719;28;20154;-65
2021/12/29 03:54:10;;;;;;;86.03;29.60;;;;;;;;;;5067185;28;20055;-65
2021/12/29 03:56:42;;;;;;;95.22;29.90;;;;;;;;;;5069664;28;20088;-65
2021/12/29 03:59:09;;;;;;;97.57;30.30;;;;;;;;;;5064951;28;20522;-65
2021/12/29 04:01:35;;;;;;;96.80;31.95;;;;;;;;;;5066900;28;20040;-65
2021/12/29 04:04:02;;;;;;;102.95;31.48;;;;;;;;;;5061344;28;20051;-65
2021/12/29 04:06:28;;;;;;;100.10;30.53;;;;;;;;;;5059773;28;20051;-65
2021/12/29 04:08:55;;;;;;;112.10;31.20;;;;;;;;;;5065082;28;20054;-65
2021/12/29 04:11:23;;;;;;;116.53;32.28;;;;;;;;;;5061869;28;20124;-65
2021/12/29 04:13:50;;;;;;;114.35;34.58;;;;;;;;;;5064867;28;20131;-65
2021/12/29 04:16:18;;;;;;;104.95;31.65;;;;;;;;;;5065967;28;20131;-65
2021/12/29 04:19:06;;;;;;;114.68;33.38;;;;;;;;;;5066284;28;20443;-65
2021/12/29 04:21:34;;;;;;;109.88;32.42;;;;;;;;;;5063231;28;20451;-65
2021/12/29 04:24:07;;;;;;;109.38;33.10;;;;;;;;;;5068166;28;20048;-65
2021/12/29 04:26:36;;;;;;;113.40;34.75;;;;;;;;;;5062802;28;20087;-65
2021/12/29 04:29:06;;;;;;;111.03;34.10;;;;;;;;;;5064011;28;20072;-65
2021/12/29 04:31:34;;;;;;;108.95;33.85;;;;;;;;;;5065512;28;20526;-65
2021/12/29 04:34:00;;;;;;;130.38;34.72;;;;;;;;;;5059404;28;20052;-65
2021/12/29 04:36:27;;;;;;;115.05;33.80;;;;;;;;;;5078927;28;20071;-65
2021/12/29 04:39:01;;;;;;;118.93;35.55;;;;;;;;;;5084196;28;20139;-65
2021/12/29 04:41:27;;;;;;;123.00;35.80;;;;;;;;;;5085443;28;20121;-65
2021/12/29 04:43:54;;;;;;;101.43;32.07;;;;;;;;;;5081783;28;20139;-65
2021/12/29 04:46:36;;;;;;;106.03;33.70;;;;;;;;;;5087437;28;20381;-65
2021/12/29 04:49:03;;;;;;;115.72;34.08;;;;;;;;;;5079240;28;20083;-65
2021/12/29 04:51:36;;;;;;;128.68;37.20;;;;;;;;;;5083697;28;20203;-65
2021/12/29 04:54:06;;;;;;;127.63;36.50;;;;;;;;;;5083497;28;20099;-65
2021/12/29 04:56:33;;;;;;;124.03;34.17;;;;;;;;;;5086157;28;20581;-65
2021/12/29 04:59:00;;;;;;;88.37;25.87;;;;;;;;;;5081799;28;20506;-65
2021/12/29 05:01:26;;;;;;;110.10;33.40;;;;;;;;;;5082054;28;20373;-65
2021/12/29 05:03:54;;;;;;;118.70;34.97;;;;;;;;;;5084641;28;20047;-65
2021/12/29 05:09:05;;;;;;;106.32;30.83;;;;;;;;;;5083766;28;20470;-65
2021/12/29 05:11:32;;;;;;;117.75;33.88;;;;;;;;;;5082001;28;20162;-65
2021/12/29 05:13:58;;;;;;;112.18;34.83;;;;;;;;;;5086747;28;20139;-65
2021/12/29 05:16:28;;;;;;;127.28;34.58;;;;;;;;;;5062980;28;20123;-65
2021/12/29 05:18:56;;;;;;;112.25;32.92;;;;;;;;;;5062699;28;20557;-65
2021/12/29 05:21:22;;;;;;;117.97;33.28;;;;;;;;;;5061087;28;20080;-65
2021/12/29 05:23:49;;;;;;;116.68;32.78;;;;;;;;;;5079798;28;20079;-65
2021/12/29 05:26:15;;;;;;;109.25;32.13;;;;;;;;;;5083708;28;20559;-65
2021/12/29 05:28:42;;;;;;;114.60;32.50;;;;;;;;;;5086268;28;20046;-65
2021/12/29 05:31:16;;;;;;;117.75;34.45;;;;;;;;;;5083347;28;20127;-65
2021/12/29 05:33:43;;;;;;;116.97;33.10;;;;;;;;;;5082958;28;20044;-65
2021/12/29 05:36:09;;;;;;;95.90;31.27;;;;;;;;;;5084640;28;20130;-65
2021/12/29 05:38:36;;;;;;;97.88;31.00;;;;;;;;;;5081213;28;20044;-65
2021/12/29 05:41:02;;;;;;;103.25;31.60;;;;;;;;;;5083778;28;20076;-65
2021/12/29 05:43:28;;;;;;;109.00;33.90;;;;;;;;;;5084369;28;20047;-65
2021/12/29 05:45:56;;;;;;;111.18;32.03;;;;;;;;;;5084059;28;20147;-65
2021/12/29 05:48:23;;;;;;;128.48;34.63;;;;;;;;;;5081732;28;20852;-65
2021/12/29 05:50:49;;;;;;;116.53;32.60;;;;;;;;;;5083003;28;20500;-65
2021/12/29 05:53:23;;;;;;;109.00;33.78;;;;;;;;;;5055312;28;20072;-65
2021/12/29 05:55:50;;;;;;;125.38;34.42;;;;;;;;;;5053281;28;20152;-65
2021/12/29 05:58:16;;;;;;;;;;;;;;;;;;5060668;28;20087;-65
2021/12/29 06:00:43;;;;;;;113.78;30.65;;;;;;;;;;5063993;28;19929;-65
2021/12/29 06:03:10;;;;;;;115.00;33.67;;;;;;;;;;5066033;28;20554;-65
2021/12/29 06:05:37;;;;;;;105.70;32.83;;;;;;;;;;5060501;28;20083;-65
2021/12/29 06:08:04;;;;;;;107.28;31.42;;;;;;;;;;5068385;28;20080;-65
2021/12/29 06:10:31;;;;;;;111.13;32.53;;;;;;;;;;5063270;28;20120;-65
2021/12/29 06:12:57;;;;;;;86.07;24.98;;;;;;;;;;5061835;28;20100;-65
2021/12/29 06:15:25;;;;;;;107.15;31.55;;;;;;;;;;5054193;28;20459;-65
2021/12/29 06:17:51;;;;;;;108.73;31.77;;;;;;;;;;5066455;28;20396;-65
2021/12/29 06:20:17;;;;;;;119.00;33.53;;;;;;;;;;5062348;28;20071;-65
2021/12/29 06:22:45;;;;;;;113.05;33.15;;;;;;;;;;5057987;28;20136;-65
2021/12/29 06:25:13;;;;;;;129.07;34.22;;;;;;;;;;5063469;28;20478;-65
2021/12/29 06:27:39;;;;;;;;;;;;;;;;;;5059471;28;20102;-65
2021/12/29 06:30:09;;;;;;;82.22;23.45;;;;;;;;;;5061297;28;19962;-65
2021/12/29 06:32:35;;;;;;;93.20;29.90;;;;;;;;;;5059518;28;20131;-65
2021/12/29 06:35:02;;;;;;;114.38;32.97;;;;;;;;;;5062037;28;20131;-65
2021/12/29 06:37:29;;;;;;;;;;;;;;;;;;5062989;28;20049;-65
2021/12/29 06:39:56;;;;;;;115.82;32.22;;;;;;;;;;5062466;28;20252;-65
2021/12/29 06:42:23;;;;;;;110.53;33.35;;;;;;;;;;5059465;28;20081;-65
2021/12/29 06:44:50;;;;;;;111.57;35.13;;;;;;;;;;5060704;28;20048;-65
2021/12/29 06:47:16;;;;;;;114.32;34.40;;;;;;;;;;5060912;28;20055;-65
2021/12/29 06:49:43;;;;;;;81.20;25.23;;;;;;;;;;5065641;28;20131;-65
2021/12/29 06:52:22;;;;;;;113.65;34.80;;;;;;;;;;5063696;28;20045;-65
2021/12/29 06:54:48;;;;;;;126.47;34.58;;;;;;;;;;5056291;28;20049;-65
2021/12/29 06:57:15;;;;;;;114.60;33.75;;;;;;;;;;5059760;28;20143;-65
2021/12/29 06:59:42;;;;;;;127.05;34.92;;;;;;;;;;5063783;28;20125;-65
2021/12/29 07:02:09;;;;;;;115.10;33.95;;;;;;;;;;5061237;28;20048;-65
2021/12/29 07:04:36;;;;;;;;;;;;;;;;;;5058938;28;20063;-65
2021/12/29 07:07:02;;;;;;;95.70;28.80;;;;;;;;;;5057174;28;19974;-65
2021/12/29 07:09:29;;;;;;;102.78;30.50;;;;;;;;;;5059241;28;20543;-65
2021/12/29 07:11:55;;;;;;;118.55;33.47;;;;;;;;;;5060084;28;20081;-65
2021/12/29 07:14:22;;;;;;;111.28;33.63;;;;;;;;;;5060375;28;20547;-65
2021/12/29 07:16:49;;;;;;;113.75;33.67;;;;;;;;;;5061405;28;20140;-65
2021/12/29 07:19:18;;;;;;;104.22;32.63;;;;;;;;;;5055202;28;20504;-65
2021/12/29 07:21:45;;;;;;;113.82;33.70;;;;;;;;;;5065035;28;20459;-65
2021/12/29 07:24:11;;;;;;;116.23;34.00;;;;;;;;;;5060333;28;20128;-65
2021/12/29 07:26:38;;;;;;;116.47;34.17;;;;;;;;;;5063763;28;20048;-65
2021/12/29 07:29:05;;;;;;;114.85;34.60;;;;;;;;;;5063289;28;20133;-65
2021/12/29 07:31:31;;;;;;;113.90;32.25;;;;;;;;;;5076620;28;20048;-65
2021/12/29 07:34:17;;;;;;;111.35;33.35;;;;;;;;;;5079614;28;20052;-65
2021/12/29 07:36:44;;;;;;;122.78;32.42;;;;;;;;;;5081202;28;20154;-65
2021/12/29 07:39:11;;;;;;;115.03;32.90;;;;;;;;;;5078244;28;20446;-65
2021/12/29 07:41:39;;;;;;;112.63;31.17;;;;;;;;;;5083092;28;20322;-65
2021/12/29 07:44:06;;;;;;;120.13;32.10;;;;;;;;;;5084261;28;20079;-65
2021/12/29 07:46:34;;;;;;;128.60;34.35;;;;;;;;;;5079386;28;20518;-65
2021/12/29 07:49:01;;;;;;;125.93;35.33;;;;;;;;;;5081630;28;20052;-65
2021/12/29 07:51:28;;;;;;;131.00;35.40;;;;;;;;;;5078414;28;20102;-65
2021/12/29 07:53:56;;;;;;;138.85;37.65;;;;;;;;;;5083070;28;20075;-65
2021/12/29 07:56:22;;;;;;;144.27;34.95;;;;;;;;;;5072967;28;20099;-64
2021/12/29 07:58:49;;;;;;;150.17;37.20;;;;;;;;;;5062739;28;20094;-65
2021/12/29 08:01:15;;;;;;;148.23;37.27;;;;;;;;;;5064034;28;20132;-65
2021/12/29 08:03:42;;;;;;;109.28;27.75;;;;;;;;;;5064418;28;20103;-65
2021/12/29 08:06:09;;;;;;;148.82;37.78;;;;;;;;;;5064748;28;20084;-65
2021/12/29 08:08:35;;;;;;;153.97;38.63;;;;;;;;;;5060623;28;20041;-65
2021/12/29 08:11:02;;;;;;;151.48;36.85;;;;;;;;;;5066377;28;20135;-65
2021/12/29 08:13:29;;;;;;;130.00;36.17;;;;;;;;;;5067463;28;20043;-65
2021/12/29 08:15:56;;;;;;;;;;;;;;;;;;5059207;28;20569;-65
2021/12/29 08:18:23;;;;;;;127.50;33.75;;;;;;;;;;5064857;28;19928;-65
2021/12/29 08:20:49;;;;;;;132.45;35.53;;;;;;;;;;5065799;28;20146;-65
2021/12/29 08:23:16;;;;;;;156.52;35.97;;;;;;;;;;5058886;28;20124;-65
2021/12/29 08:25:42;;;;;;;137.65;36.47;;;;;;;;;;5065449;28;20120;-65
2021/12/29 08:28:09;;;;;;;148.77;37.27;;;;;;;;;;5067428;28;20140;-65
2021/12/29 08:30:35;;;;;;;155.38;36.65;;;;;;;;;;5062589;28;20167;-65
2021/12/29 08:33:02;;;;;;;161.77;37.88;;;;;;;;;;5063271;28;20076;-65
2021/12/29 08:35:28;;;;;;;172.30;37.05;;;;;;;;;;5062571;28;20167;-65
2021/12/29 08:37:55;;;;;;;218.02;41.70;;;;;;;;;;5063613;28;20809;-65
2021/12/29 08:40:22;;;;;;;274.20;44.45;;;;;;;;;;5062830;28;20041;-65
2021/12/29 08:42:51;;;;;;;246.85;41.50;;;;;;;;;;5064586;28;20138;-65
2021/12/29 08:45:21;;;;;;;314.92;44.60;;;;;;;;;;5063027;28;20075;-65
2021/12/29 08:47:48;;;;;;;306.88;46.10;;;;;;;;;;5061821;28;20049;-65
2021/12/29 08:50:16;;;;;;;309.30;45.38;;;;;;;;;;5064907;28;20053;-65
2021/12/29 08:52:42;;;;;;;308.23;45.03;;;;;;;;;;5068878;28;20140;-65
2021/12/29 08:55:09;;;;;;;181.67;31.00;;;;;;;;;;5060724;28;20132;-65
2021/12/29 08:57:36;;;;;;;190.77;31.77;;;;;;;;;;5054943;28;20053;-65
2021/12/29 09:00:07;;;;;;;247.52;43.60;;;;;;;;;;5065999;28;20559;-65
2021/12/29 09:02:33;;;;;;;480.02;51.38;;;;;;;;;;5064488;28;20126;-65
2021/12/29 09:05:00;;;;;;;336.07;42.60;;;;;;;;;;5062085;28;20580;-65
2021/12/29 09:07:28;;;;;;;347.40;46.33;;;;;;;;;;5060466;28;20123;-65
2021/12/29 09:09:55;;;;;;;309.17;42.90;;;;;;;;;;5067737;28;20543;-65
2021/12/29 09:12:21;;;;;;;387.23;45.95;;;;;;;;;;5059958;28;20076;-65
2021/12/29 09:14:48;;;;;;;516.22;47.90;;;;;;;;;;5062742;28;20067;-65
2021/12/29 09:17:15;;;;;;;337.42;41.60;;;;;;;;;;5061254;28;20131;-65
2021/12/29 09:19:44;;;;;;;325.65;45.42;;;;;;;;;;5084527;28;20040;-65
2021/12/29 09:22:11;;;;;;;511.75;48.15;;;;;;;;;;5081097;28;20083;-65
2021/12/29 09:24:38;;;;;;;479.77;48.10;;;;;;;;;;5086834;28;20480;-65
2021/12/29 09:27:04;;;;;;;406.88;45.70;;;;;;;;;;5082023;28;20495;-65
2021/12/29 09:29:34;;;;;;;371.35;46.33;;;;;;;;;;5083958;28;20459;-65
2021/12/29 09:32:02;;;;;;;377.20;46.17;;;;;;;;;;5085499;28;20131;-65
2021/12/29 09:34:28;;;;;;;623.55;51.97;;;;;;;;;;5083643;28;20135;-65
2021/12/29 09:36:55;;;;;;;474.63;47.87;;;;;;;;;;5087437;28;20493;-65
2021/12/29 09:39:21;;;;;;;416.75;43.97;;;;;;;;;;5079813;28;20136;-65
2021/12/29 09:41:49;;;;;;;319.13;40.17;;;;;;;;;;5083861;28;20742;-65
2021/12/29 09:44:15;;;;;;;153.50;27.63;;;;;;;;;;5083484;28;20135;-65
2021/12/29 09:46:42;;;;;;;261.50;41.17;;;;;;;;;;5078257;28;20464;-65
2021/12/29 09:49:11;;;;;;;257.33;39.47;;;;;;;;;;5083198;28;20453;-65
2021/12/29 09:51:39;;;;;;;269.42;40.22;;;;;;;;;;5062655;28;20139;-65
2021/12/29 09:54:05;;;;;;;227.80;38.88;;;;;;;;;;5063486;28;20079;-65
2021/12/29 09:56:31;;;;;;;248.32;40.05;;;;;;;;;;5059747;28;20053;-65
2021/12/29 09:58:59;;;;;;;345.95;44.70;;;;;;;;;;5023436;28;20132;-65
2021/12/29 10:01:25;;;;;;;362.92;44.13;;;;;;;;;;5039782;28;20069;-65
2021/12/29 10:03:52;;;;;;;417.05;46.15;;;;;;;;;;5043577;28;20076;-65
2021/12/29 10:06:19;;;;;;;384.27;43.22;;;;;;;;;;5043248;28;20564;-65
2021/12/29 10:08:49;;;;;;;386.67;45.53;;;;;;;;;;5044285;28;20179;-65
2021/12/29 10:11:25;;;;;;;287.15;42.38;;;;;;;;;;5041279;28;20465;-65
2021/12/29 10:13:52;;;;;;;312.63;40.90;;;;;;;;;;5041566;28;20056;-65
2021/12/29 10:16:24;;;;;;;263.33;42.72;;;;;;;;;;5042661;28;20559;-65
2021/12/29 10:18:57;;;;;;;229.63;37.88;;;;;;;;;;5044229;28;20564;-65
2021/12/29 10:21:26;;;;;;;262.77;39.55;;;;;;;;;;5043856;28;20563;-65
2021/12/29 10:23:53;;;;;;;259.27;39.40;;;;;;;;;;5045307;28;20117;-65
2021/12/29 10:26:38;;;;;;;136.60;34.20;;;;;;;;;;5041330;28;20056;-65
2021/12/29 10:29:07;;;;;;;153.95;34.90;;;;;;;;;;5042741;28;20171;-65
2021/12/29 10:31:34;;;;;;;191.98;40.20;;;;;;;;;;5043698;28;20106;-65
2021/12/29 10:34:02;;;;;;;141.43;33.38;;;;;;;;;;5047839;28;20075;-65
2021/12/29 10:36:30;;;;;;;137.15;32.33;;;;;;;;;;5041632;28;20148;-65
2021/12/29 10:39:17;;;;;;;153.15;34.05;;;;;;;;;;5043883;28;20083;-65
2021/12/29 10:41:43;;;;;;;378.90;42.17;;;;;;;;;;5043090;28;20075;-66
2021/12/29 10:44:12;;;;;;;370.50;41.55;;;;;;;;;;5040384;28;20132;-65
2021/12/29 10:46:38;;;;;;;249.10;40.05;;;;;;;;;;5039310;28;20143;-65
2021/12/29 10:49:09;;;;;;;272.73;39.65;;;;;;;;;;5041873;28;20059;-65
2021/12/29 10:51:36;;;;;;;231.63;39.38;;;;;;;;;;5035139;28;20144;-65
2021/12/29 10:54:07;;;;;;;319.30;40.40;;;;;;;;;;5036336;28;20083;-65
2021/12/29 10:56:34;;;;;;;249.45;39.92;;;;;;;;;;5040346;28;20110;-65
2021/12/29 10:59:10;;;;;;;242.85;36.83;;;;;;;;;;5045769;28;20048;-65
2021/12/29 11:01:37;;;;;;;253.95;38.95;;;;;;;;;;5056872;28;20120;-65
2021/12/29 11:04:04;;;;;;;202.43;37.50;;;;;;;;;;5062484;28;20077;-65
2021/12/29 11:06:30;;;;;;;206.50;36.67;;;;;;;;;;5057722;28;20152;-65
2021/12/29 11:09:03;;;;;;;189.20;35.50;;;;;;;;;;5062320;28;20484;-65
2021/12/29 11:11:37;;;;;;;158.55;33.90;;;;;;;;;;5060533;28;20556;-65
2021/12/29 11:14:11;;;;;;;124.75;31.38;;;;;;;;;;5063091;28;20529;-65
2021/12/29 11:16:38;;;;;;;138.25;32.38;;;;;;;;;;5061186;28;20072;-65
2021/12/29 11:19:05;;;;;;;221.32;37.45;;;;;;;;;;5062894;28;20068;-65
2021/12/29 11:21:36;;;;;;;241.35;37.22;;;;;;;;;;5046213;28;20151;-65
2021/12/29 11:24:11;;;;;;;174.27;35.17;;;;;;;;;;5062881;28;20411;-65
2021/12/29 11:26:44;;;;;;;179.45;34.00;;;;;;;;;;5059361;28;20071;-65
2021/12/29 11:29:13;;;;;;;194.50;37.08;;;;;;;;;;5064346;28;20636;-65
2021/12/29 11:31:41;;;;;;;161.68;34.50;;;;;;;;;;5083854;28;20086;-65
2021/12/29 11:34:12;;;;;;;167.18;34.80;;;;;;;;;;5084028;28;20048;-65
2021/12/29 11:36:39;;;;;;;160.82;34.13;;;;;;;;;;5086886;28;20090;-65
2021/12/29 11:39:05;;;;;;;192.32;33.58;;;;;;;;;;5084648;28;20494;-65
2021/12/29 11:41:32;;;;;;;184.90;33.72;;;;;;;;;;5082914;28;20161;-65
2021/12/29 11:43:58;;;;;;;203.57;34.75;;;;;;;;;;5081586;28;20072;-65
2021/12/29 11:46:25;;;;;;;166.63;33.40;;;;;;;;;;5085579;28;20084;-65
2021/12/29 11:49:02;;;;;;;185.38;32.67;;;;;;;;;;5083484;28;20040;-65
2021/12/29 11:51:33;;;;;;;196.00;34.20;;;;;;;;;;5083813;28;20061;-65
2021/12/29 11:54:02;;;;;;;171.80;34.05;;;;;;;;;;5087894;28;20749;-65
2021/12/29 11:56:38;;;;;;;195.20;33.80;;;;;;;;;;5080523;28;20138;-65
2021/12/29 11:59:04;;;;;;;166.55;31.80;;;;;;;;;;5077914;28;20167;-65
2021/12/29 12:01:55;;;;;;;158.07;31.83;;;;;;;;;;5078417;28;20058;-65
2021/12/29 12:04:22;;;;;;;163.30;32.63;;;;;;;;;;5077134;28;20414;-65
2021/12/29 12:06:58;;;;;;;134.25;29.55;;;;;;;;;;5077746;28;20131;-65
2021/12/29 12:09:25;;;;;;;135.90;31.90;;;;;;;;;;5077522;28;21354;-65
2021/12/29 12:11:56;;;;;;;160.23;31.00;;;;;;;;;;5078122;28;20132;-65
2021/12/29 12:14:22;;;;;;;171.73;30.70;;;;;;;;;;5077484;28;20139;-65
2021/12/29 12:16:51;;;;;;;165.07;31.50;;;;;;;;;;5076579;28;20052;-65
2021/12/29 12:19:22;;;;;;;116.70;26.05;;;;;;;;;;5077050;28;20047;-65
2021/12/29 12:21:59;;;;;;;159.73;32.60;;;;;;;;;;5075902;28;20072;-65
2021/12/29 12:24:26;;;;;;;138.38;30.48;;;;;;;;;;5077932;28;20182;-65
2021/12/29 12:26:59;;;;;;;154.27;31.05;;;;;;;;;;5085683;28;20583;-65
2021/12/29 12:29:33;;;;;;;126.93;29.30;;;;;;;;;;5079851;28;20524;-65
2021/12/29 12:32:01;;;;;;;148.00;33.92;;;;;;;;;;5089885;28;20079;-65
2021/12/29 12:34:28;;;;;;;133.45;32.50;;;;;;;;;;5084909;28;20150;-65
2021/12/29 12:36:55;;;;;;;116.68;29.23;;;;;;;;;;5085163;28;20131;-65
2021/12/29 12:39:21;;;;;;;125.13;30.67;;;;;;;;;;5079743;28;20122;-65
2021/12/29 12:41:50;;;;;;;114.75;29.73;;;;;;;;;;5086256;28;20302;-65
2021/12/29 12:44:19;;;;;;;126.35;31.35;;;;;;;;;;5083203;28;20123;-65
2021/12/29 12:46:48;;;;;;;102.63;27.33;;;;;;;;;;5079862;28;20088;-65
2021/12/29 12:49:16;;;;;;;100.93;26.65;;;;;;;;;;5074863;28;20056;-65
2021/12/29 12:51:54;;;;;;;105.65;28.27;;;;;;;;;;5077061;28;20109;-65
2021/12/29 12:54:21;;;;;;;;;;;;;;;;;;5077062;28;20238;-65
2021/12/29 12:56:48;;;;;;;122.40;29.10;;;;;;;;;;5069817;28;20061;-65
2021/12/29 12:59:15;;;;;;;143.88;32.28;;;;;;;;;;5061087;28;20069;-65
2021/12/29 13:01:45;;;;;;;145.57;30.73;;;;;;;;;;5063914;28;20186;-65
2021/12/29 13:04:13;;;;;;;131.98;31.42;;;;;;;;;;5062167;28;20469;-65
2021/12/29 13:06:40;;;;;;;156.70;30.98;;;;;;;;;;5067580;28;20076;-65
2021/12/29 13:09:07;;;;;;;134.98;29.70;;;;;;;;;;5064196;28;20136;-65
2021/12/29 13:11:35;;;;;;;131.35;30.35;;;;;;;;;;5061152;28;20087;-65
2021/12/29 13:14:03;;;;;;;148.02;31.77;;;;;;;;;;5057998;28;20104;-65
2021/12/29 13:16:30;;;;;;;184.35;34.08;;;;;;;;;;5053911;28;20128;-65
2021/12/29 13:18:57;;;;;;;159.20;33.08;;;;;;;;;;5062132;28;20060;-65
2021/12/29 13:21:40;;;;;;;143.55;31.38;;;;;;;;;;5066663;28;20044;-65
2021/12/29 13:24:08;;;;;;;129.15;31.15;;;;;;;;;;5063834;28;20114;-65
2021/12/29 13:26:37;;;;;;;117.10;30.60;;;;;;;;;;5062603;28;20127;-65
2021/12/29 13:29:04;;;;;;;130.57;29.80;;;;;;;;;;5063015;28;20473;-65
2021/12/29 13:31:30;;;;;;;;;;;;;;;;;;5061420;28;20148;-65
2021/12/29 13:33:57;;;;;;;98.20;25.85;;;;;;;;;;5062367;28;19975;-65
2021/12/29 13:36:24;;;;;;;123.83;31.13;;;;;;;;;;5066018;28;20135;-65
2021/12/29 13:38:54;;;;;;;98.05;29.00;;;;;;;;;;5064562;28;20076;-65
2021/12/29 13:41:21;;;;;;;79.30;25.17;;;;;;;;;;5060816;28;20124;-65
2021/12/29 13:43:49;;;;;;;89.00;25.58;;;;;;;;;;5059762;28;20076;-65
2021/12/29 13:46:18;;;;;;;107.05;25.95;;;;;;;;;;5060491;28;20309;-65
2021/12/29 13:48:47;;;;;;;100.18;24.25;;;;;;;;;;5063666;28;20487;-65
2021/12/29 13:51:22;;;;;;;113.78;27.75;;;;;;;;;;5042282;28;20077;-65
2021/12/29 13:54:11;;;;;;;109.90;28.73;;;;;;;;;;5063874;28;20094;-65
2021/12/29 13:56:38;;;;;;;117.32;26.45;;;;;;;;;;5061980;28;20092;-65
2021/12/29 13:59:09;;;;;;;123.55;27.02;;;;;;;;;;5061781;28;20455;-65
2021/12/29 14:01:47;;;;;;;112.22;25.02;;;;;;;;;;5066419;28;20041;-65
2021/12/29 14:04:19;;;;;;;123.78;27.85;;;;;;;;;;5063040;28;20048;-65
2021/12/29 14:06:46;;;;;;;141.65;28.65;;;;;;;;;;5045802;28;20084;-65
2021/12/29 14:09:13;;;;;;;121.90;28.13;;;;;;;;;;5062694;28;20115;-65
2021/12/29 14:11:40;;;;;;;130.25;27.52;;;;;;;;;;5082281;28;20083;-65
2021/12/29 14:14:07;;;;;;;101.53;20.95;;;;;;;;;;5080639;28;20053;-65
2021/12/29 14:16:42;;;;;;;142.52;27.08;;;;;;;;;;5080612;28;20077;-65
2021/12/29 14:19:10;;;;;;;115.57;27.50;;;;;;;;;;5082761;28;20066;-65
2021/12/29 14:21:37;;;;;;;132.10;29.65;;;;;;;;;;5084788;28;20127;-65
2021/12/29 14:24:13;;;;;;;116.53;26.63;;;;;;;;;;5082391;28;20127;-65